Time;durP1;ratioP1;P1;durP2;ratioP2;P2;SDS_P1;SDS_P2;PMS_P1;PMS_P2;Temp;Humidity;BMP_temperature;BMP_pressure;BME280_temperature;BME280_humidity;BME280_pressure;Samples;Min_cycle;Max_cycle;Signal;HPM_P1;HPM_P2
2022/03/03 00:00:20;;;;;;;11.45;6.80;;;6.20;53.70;;;;;;5095616;28;20046;-42
2022/03/03 00:02:45;;;;;;;12.05;6.82;;;6.20;53.80;;;;;;5095461;28;20123;-42
2022/03/03 00:05:11;;;;;;;11.48;7.40;;;6.10;53.90;;;;;;5095488;28;20020;-42
2022/03/03 00:07:37;;;;;;;12.32;7.53;;;6.10;54.00;;;;;;5095466;28;20031;-41
2022/03/03 00:10:07;;;;;;;11.63;7.47;;;6.10;54.10;;;;;;5094081;28;20024;-42
2022/03/03 00:12:33;;;;;;;13.27;7.40;;;6.10;54.10;;;;;;5095351;28;20493;-42
2022/03/03 00:14:59;;;;;;;11.63;7.30;;;6.10;54.20;;;;;;5095212;28;20066;-41
2022/03/03 00:17:24;;;;;;;13.48;7.35;;;6.10;54.30;;;;;;5095412;28;20035;-42
2022/03/03 00:19:50;;;;;;;12.18;7.55;;;6.00;54.40;;;;;;5095136;28;20032;-43
2022/03/03 00:22:16;;;;;;;12.75;7.75;;;6.00;54.50;;;;;;5095168;28;20302;-42
2022/03/03 00:24:42;;;;;;;12.18;7.80;;;6.00;54.50;;;;;;5095093;28;20050;-42
2022/03/03 00:27:08;;;;;;;14.15;8.00;;;6.00;54.60;;;;;;5095038;28;20477;-42
2022/03/03 00:29:34;;;;;;;13.23;7.72;;;5.90;54.60;;;;;;5094957;28;20028;-42
2022/03/03 00:31:59;;;;;;;11.43;7.45;;;5.90;54.60;;;;;;5095293;28;20027;-43
2022/03/03 00:34:25;;;;;;;13.18;7.85;;;5.90;54.70;;;;;;5094964;28;20028;-43
2022/03/03 00:36:51;;;;;;;11.40;7.38;;;5.90;54.80;;;;;;5094839;28;20034;-43
2022/03/03 00:39:16;;;;;;;13.20;8.15;;;5.90;54.90;;;;;;5094780;28;20035;-43
2022/03/03 00:41:42;;;;;;;12.90;7.50;;;5.80;55.00;;;;;;5094810;28;20081;-43
2022/03/03 00:44:09;;;;;;;13.27;7.85;;;5.80;55.00;;;;;;5094804;28;20028;-43
2022/03/03 00:46:36;;;;;;;11.68;7.35;;;5.80;55.70;;;;;;5094613;28;20024;-41
2022/03/03 00:49:03;;;;;;;11.10;7.43;;;5.70;55.10;;;;;;5094612;28;20032;-43
2022/03/03 00:51:29;;;;;;;14.27;7.30;;;5.80;55.20;;;;;;5094737;28;20159;-43
2022/03/03 00:53:55;;;;;;;12.38;7.38;;;5.70;55.20;;;;;;5094339;28;20031;-42
2022/03/03 00:56:21;;;;;;;11.80;7.10;;;5.70;55.30;;;;;;5094646;28;20020;-43
2022/03/03 00:58:46;;;;;;;11.98;7.60;;;5.70;55.30;;;;;;5094371;28;20035;-42
2022/03/03 01:01:12;;;;;;;12.65;7.82;;;5.60;55.30;;;;;;5094465;28;20443;-43
2022/03/03 01:03:38;;;;;;;12.93;7.93;;;5.60;55.40;;;;;;5094316;28;20035;-42
2022/03/03 01:06:04;;;;;;;14.18;7.63;;;5.60;55.60;;;;;;5094378;28;20387;-43
2022/03/03 01:08:30;;;;;;;12.95;7.60;;;5.60;55.70;;;;;;5094591;28;20103;-43
2022/03/03 01:10:55;;;;;;;13.50;8.00;;;5.60;55.70;;;;;;5094127;28;20026;-43
2022/03/03 01:13:22;;;;;;;13.38;7.80;;;5.50;55.70;;;;;;5094132;28;20024;-42
2022/03/03 01:15:48;;;;;;;13.43;8.05;;;5.50;55.80;;;;;;5075867;28;20028;-43
2022/03/03 01:18:14;;;;;;;13.95;8.07;;;5.50;55.90;;;;;;5094012;28;20028;-43
2022/03/03 01:20:40;;;;;;;13.13;8.00;;;5.40;55.90;;;;;;5093644;28;20050;-42
2022/03/03 01:23:06;;;;;;;11.23;7.35;;;5.40;56.00;;;;;;5094119;28;20024;-43
2022/03/03 01:25:32;;;;;;;12.60;7.47;;;5.40;56.10;;;;;;5093970;28;20148;-43
2022/03/03 01:27:57;;;;;;;13.15;8.30;;;5.40;56.10;;;;;;5093775;28;20028;-43
2022/03/03 01:30:23;;;;;;;11.38;7.20;;;5.40;56.20;;;;;;5093884;28;20149;-40
2022/03/03 01:32:48;;;;;;;11.93;7.25;;;5.30;56.10;;;;;;5093902;28;20039;-42
2022/03/03 01:35:14;;;;;;;12.10;7.22;;;5.30;56.20;;;;;;5093744;28;20077;-43
2022/03/03 01:37:39;;;;;;;10.90;7.00;;;5.30;56.20;;;;;;5093858;28;20102;-42
2022/03/03 01:40:07;;;;;;;11.95;7.70;;;5.30;56.20;;;;;;5093859;28;20044;-44
2022/03/03 01:42:32;;;;;;;10.85;7.03;;;5.30;56.30;;;;;;5093658;28;20556;-43
2022/03/03 01:44:58;;;;;;;14.27;7.95;;;5.20;56.30;;;;;;5093496;28;20095;-43
2022/03/03 01:47:25;;;;;;;12.65;7.53;;;5.30;56.40;;;;;;5093786;28;20020;-43
2022/03/03 01:49:54;;;;;;;13.55;7.53;;;5.20;56.40;;;;;;5093729;28;20460;-44
2022/03/03 01:52:20;;;;;;;11.88;7.72;;;5.20;56.50;;;;;;5093494;28;20026;-43
2022/03/03 01:54:46;;;;;;;14.65;8.63;;;5.20;56.50;;;;;;5093326;28;20048;-43
2022/03/03 01:57:14;;;;;;;12.88;7.88;;;5.20;56.60;;;;;;5093455;28;20381;-42
2022/03/03 01:59:41;;;;;;;13.07;8.20;;;5.10;56.60;;;;;;5093424;28;20074;-42
2022/03/03 02:02:10;;;;;;;12.63;7.80;;;5.10;56.80;;;;;;5093432;28;20099;-42
2022/03/03 02:04:36;;;;;;;13.75;7.90;;;5.10;56.80;;;;;;5093525;28;20516;-41
2022/03/03 02:07:02;;;;;;;12.18;7.95;;;5.10;56.90;;;;;;5093234;28;20023;-42
2022/03/03 02:09:28;;;;;;;14.40;8.30;;;5.10;57.00;;;;;;5093334;28;20036;-42
2022/03/03 02:11:54;;;;;;;13.27;7.85;;;5.00;57.00;;;;;;5074962;28;20398;-43
2022/03/03 02:14:19;;;;;;;12.93;8.27;;;5.00;57.00;;;;;;5075084;28;20111;-42
2022/03/03 02:16:45;;;;;;;14.63;8.32;;;5.00;57.10;;;;;;5093138;28;20081;-42
2022/03/03 02:19:18;;;;;;;13.23;7.80;;;5.00;57.20;;;;;;5092963;28;20488;-42
2022/03/03 02:21:45;;;;;;;;;;;5.00;57.20;;;;;;5093542;28;20022;-42
2022/03/03 02:24:11;;;;;;;12.80;7.65;;;4.90;57.20;;;;;;5092918;28;20038;-42
2022/03/03 02:26:39;;;;;;;11.65;7.68;;;4.90;57.20;;;;;;5092910;28;20107;-41
2022/03/03 02:29:05;;;;;;;13.77;8.27;;;4.90;57.90;;;;;;5092957;28;20027;-42
2022/03/03 02:31:31;;;;;;;12.23;7.90;;;4.90;57.30;;;;;;5093163;28;20028;-43
2022/03/03 02:33:57;;;;;;;12.45;7.85;;;4.80;57.40;;;;;;5091932;28;20031;-41
2022/03/03 02:36:27;;;;;;;12.85;8.18;;;4.80;57.50;;;;;;5092862;28;20032;-42
2022/03/03 02:38:54;;;;;;;12.40;8.25;;;4.80;57.50;;;;;;5074633;28;20109;-42
2022/03/03 02:41:20;;;;;;;12.70;7.88;;;4.80;57.60;;;;;;5092855;28;20032;-42
2022/03/03 02:43:46;;;;;;;15.25;8.20;;;4.80;57.60;;;;;;5092709;28;20024;-41
2022/03/03 02:46:12;;;;;;;11.23;7.45;;;4.80;57.70;;;;;;5092699;28;20473;-41
2022/03/03 02:48:38;;;;;;;11.93;7.90;;;4.70;57.70;;;;;;5074617;28;20046;-41
2022/03/03 02:51:04;;;;;;;13.05;8.07;;;4.70;57.80;;;;;;5092706;28;20384;-41
2022/03/03 02:53:30;;;;;;;13.77;8.77;;;4.70;57.80;;;;;;5092747;28;20089;-42
2022/03/03 02:55:56;;;;;;;12.50;7.70;;;4.70;57.90;;;;;;5092563;28;20040;-43
2022/03/03 02:58:21;;;;;;;13.73;8.40;;;4.70;57.90;;;;;;5092479;28;20447;-42
2022/03/03 03:00:47;;;;;;;12.77;8.02;;;4.70;58.00;;;;;;5092615;28;20028;-34
2022/03/03 03:03:17;;;;;;;13.55;8.15;;;4.60;58.00;;;;;;5092669;28;20397;-35
2022/03/03 03:05:43;;;;;;;11.90;7.63;;;4.60;58.10;;;;;;5092569;28;20028;-32
2022/03/03 03:08:10;;;;;;;12.20;7.82;;;4.50;58.10;;;;;;5092586;28;20391;-33
2022/03/03 03:10:37;;;;;;;14.73;8.13;;;4.50;58.20;;;;;;5092784;28;20073;-37
2022/03/03 03:13:03;;;;;;;14.88;8.90;;;4.50;58.20;;;;;;5074319;28;20028;-34
2022/03/03 03:15:29;;;;;;;13.50;8.05;;;4.50;58.20;;;;;;5092573;28;20028;-34
2022/03/03 03:17:54;;;;;;;14.75;8.63;;;4.50;58.30;;;;;;5092616;28;20035;-35
2022/03/03 03:20:21;;;;;;;17.17;8.45;;;4.50;58.30;;;;;;5092451;28;20024;-35
2022/03/03 03:22:46;;;;;;;12.00;7.55;;;4.50;58.40;;;;;;5092677;28;20020;-38
2022/03/03 03:25:13;;;;;;;14.00;8.73;;;4.40;58.40;;;;;;5092616;28;20024;-37
2022/03/03 03:27:41;;;;;;;14.13;8.23;;;4.40;58.50;;;;;;5092428;28;20028;-32
2022/03/03 03:30:09;;;;;;;12.63;7.60;;;4.40;58.50;;;;;;5092323;28;20166;-35
2022/03/03 03:32:35;;;;;;;15.38;8.93;;;4.40;58.50;;;;;;5092233;28;20035;-32
2022/03/03 03:35:02;;;;;;;14.00;8.23;;;4.40;58.60;;;;;;5092378;28;20056;-34
2022/03/03 03:37:27;;;;;;;13.50;8.13;;;4.40;58.60;;;;;;5092236;28;20032;-34
2022/03/03 03:39:53;;;;;;;14.48;8.00;;;4.40;59.30;;;;;;5092194;28;20434;-33
2022/03/03 03:42:19;;;;;;;12.30;7.70;;;4.40;58.70;;;;;;5092529;28;20427;-32
2022/03/03 03:44:44;;;;;;;14.25;8.40;;;4.30;58.70;;;;;;5093778;28;20024;-34
2022/03/03 03:47:12;;;;;;;12.77;7.88;;;4.30;58.70;;;;;;5096091;28;20016;-33
2022/03/03 03:49:38;;;;;;;12.55;7.93;;;4.30;58.80;;;;;;5095989;28;20032;-37
2022/03/03 03:52:04;;;;;;;13.68;8.60;;;4.30;58.80;;;;;;5095826;28;20487;-32
2022/03/03 03:54:30;;;;;;;14.05;8.48;;;4.20;58.80;;;;;;5095553;28;20047;-34
2022/03/03 03:56:55;;;;;;;12.32;7.95;;;4.20;58.90;;;;;;5095894;28;20039;-36
2022/03/03 03:59:21;;;;;;;14.05;8.57;;;4.30;59.00;;;;;;5095640;28;20473;-34
2022/03/03 04:01:47;;;;;;;13.32;8.23;;;4.20;59.00;;;;;;5095596;28;20089;-35
2022/03/03 04:04:12;;;;;;;12.77;7.50;;;4.20;59.00;;;;;;5095484;28;20077;-33
2022/03/03 04:06:38;;;;;;;13.68;8.70;;;4.20;59.10;;;;;;5095412;28;20411;-32
2022/03/03 04:09:04;;;;;;;15.40;8.23;;;4.20;59.10;;;;;;5095647;28;20084;-36
2022/03/03 04:11:30;;;;;;;15.02;8.95;;;4.20;59.20;;;;;;5095393;28;20028;-39
2022/03/03 04:13:56;;;;;;;14.18;8.88;;;4.20;59.30;;;;;;5095581;28;20454;-35
2022/03/03 04:16:23;;;;;;;15.05;8.82;;;4.10;59.30;;;;;;5095256;28;20040;-32
2022/03/03 04:18:49;;;;;;;12.55;8.55;;;4.10;59.40;;;;;;5095348;28;20361;-35
2022/03/03 04:21:15;;;;;;;13.93;8.90;;;4.10;59.50;;;;;;5095178;28;20027;-33
2022/03/03 04:23:41;;;;;;;12.90;8.20;;;4.10;59.50;;;;;;5095030;28;20022;-32
2022/03/03 04:26:06;;;;;;;13.57;8.48;;;4.00;59.50;;;;;;5095372;28;20043;-32
2022/03/03 04:28:32;;;;;;;13.88;8.60;;;4.00;59.60;;;;;;5095005;28;20535;-33
2022/03/03 04:30:58;;;;;;;15.60;8.75;;;4.00;59.60;;;;;;5095171;28;20060;-35
2022/03/03 04:33:23;;;;;;;12.55;8.20;;;4.00;59.60;;;;;;5094873;28;20480;-32
2022/03/03 04:35:49;;;;;;;11.70;7.85;;;4.00;59.70;;;;;;5094878;28;20158;-34
2022/03/03 04:38:14;;;;;;;14.23;8.07;;;3.90;59.70;;;;;;5094781;28;20051;-33
2022/03/03 04:40:40;;;;;;;12.13;7.43;;;3.90;59.70;;;;;;5094844;28;20020;-33
2022/03/03 04:43:05;;;;;;;12.50;7.47;;;3.90;59.70;;;;;;5094710;28;20427;-32
2022/03/03 04:45:31;;;;;;;15.15;8.70;;;3.90;59.80;;;;;;5094648;28;20047;-34
2022/03/03 04:47:57;;;;;;;12.70;7.43;;;3.80;59.80;;;;;;5094607;28;20035;-31
2022/03/03 04:50:23;;;;;;;12.18;7.80;;;3.80;59.80;;;;;;5094867;28;20024;-36
2022/03/03 04:52:48;;;;;;;13.07;7.95;;;3.80;59.90;;;;;;5094516;28;20533;-35
2022/03/03 04:55:14;;;;;;;12.95;7.50;;;3.80;59.90;;;;;;5094147;28;20055;-35
2022/03/03 04:57:39;;;;;;;13.32;8.13;;;3.70;59.90;;;;;;5094109;28;20024;-37
2022/03/03 05:00:06;;;;;;;11.95;7.90;;;3.70;60.50;;;;;;5094473;28;20023;-33
2022/03/03 05:02:32;;;;;;;14.02;7.82;;;3.70;60.00;;;;;;5076055;28;20020;-35
2022/03/03 05:04:58;;;;;;;16.50;8.82;;;3.70;60.00;;;;;;5094271;28;20023;-32
2022/03/03 05:07:23;;;;;;;12.48;8.50;;;3.60;60.00;;;;;;5094331;28;20475;-36
2022/03/03 05:09:49;;;;;;;15.52;8.80;;;3.60;60.10;;;;;;5094169;28;20028;-33
2022/03/03 05:12:15;;;;;;;13.00;7.95;;;3.60;60.10;;;;;;5094205;28;20592;-35
2022/03/03 05:14:40;;;;;;;15.68;9.48;;;3.60;60.20;;;;;;5094299;28;20028;-33
2022/03/03 05:17:06;;;;;;;15.50;8.60;;;3.60;60.30;;;;;;5093984;28;20028;-34
2022/03/03 05:19:32;;;;;;;15.38;8.93;;;3.60;60.30;;;;;;5093782;28;20511;-36
2022/03/03 05:21:57;;;;;;;14.57;8.30;;;3.60;60.40;;;;;;5093843;28;20055;-33
2022/03/03 05:24:23;;;;;;;12.15;7.60;;;3.60;60.50;;;;;;5093914;28;20031;-34
2022/03/03 05:26:50;;;;;;;12.40;8.23;;;3.60;60.50;;;;;;5093755;28;20023;-32
2022/03/03 05:29:16;;;;;;;13.25;8.13;;;3.50;60.50;;;;;;5094012;28;20116;-33
2022/03/03 05:31:42;;;;;;;14.57;9.00;;;3.50;60.60;;;;;;5093739;28;20054;-32
2022/03/03 05:34:08;;;;;;;11.93;8.82;;;3.50;60.70;;;;;;5094083;28;20034;-35
2022/03/03 05:36:39;;;;;;;14.23;8.65;;;3.50;60.70;;;;;;5093739;28;20016;-41
2022/03/03 05:39:06;;;;;;;14.25;9.00;;;3.50;60.80;;;;;;5093617;28;20028;-33
2022/03/03 05:41:32;;;;;;;13.95;8.02;;;3.50;60.80;;;;;;5093677;28;20384;-33
2022/03/03 05:43:58;;;;;;;12.95;8.27;;;3.50;60.80;;;;;;5093642;28;20030;-34
2022/03/03 05:46:25;;;;;;;12.93;8.55;;;3.50;60.90;;;;;;5093789;28;20498;-32
2022/03/03 05:48:51;;;;;;;13.45;8.63;;;3.40;61.00;;;;;;5093607;28;20468;-36
2022/03/03 05:51:18;;;;;;;14.77;8.68;;;3.40;61.10;;;;;;5093402;28;20031;-37
2022/03/03 05:53:44;;;;;;;14.68;9.40;;;3.40;61.20;;;;;;5093359;28;20020;-34
2022/03/03 05:56:13;;;;;;;14.73;8.45;;;3.40;61.30;;;;;;5093189;28;20044;-32
2022/03/03 05:58:46;;;;;;;13.18;8.63;;;3.40;61.30;;;;;;5093661;28;20414;-34
2022/03/03 06:01:13;;;;;;;14.57;8.93;;;3.30;61.30;;;;;;5093332;28;20087;-34
2022/03/03 06:03:39;;;;;;;13.73;8.88;;;3.30;61.40;;;;;;5093463;28;20043;-35
2022/03/03 06:06:15;;;;;;;15.15;9.18;;;3.30;61.40;;;;;;5093224;28;20024;-33
2022/03/03 06:08:54;;;;;;;13.80;9.00;;;3.30;61.40;;;;;;5093128;28;20016;-37
2022/03/03 06:11:21;;;;;;;15.68;9.38;;;3.30;61.50;;;;;;5093095;28;20035;-33
2022/03/03 06:13:49;;;;;;;17.92;8.80;;;3.30;61.50;;;;;;5093175;28;20024;-32
2022/03/03 06:16:19;;;;;;;13.40;9.18;;;3.20;61.50;;;;;;5093501;28;20031;-33
2022/03/03 06:18:46;;;;;;;15.38;9.00;;;3.20;62.10;;;;;;5093004;28;20549;-34
2022/03/03 06:21:12;;;;;;;14.85;8.60;;;3.20;61.50;;;;;;5093323;28;20017;-33
2022/03/03 06:23:37;;;;;;;14.93;8.40;;;3.10;61.60;;;;;;5093266;28;20099;-36
2022/03/03 06:26:17;;;;;;;13.13;8.43;;;3.10;61.60;;;;;;5093041;28;20099;-33
2022/03/03 06:28:43;;;;;;;14.57;8.75;;;3.10;61.60;;;;;;5092922;28;20028;-34
2022/03/03 06:31:08;;;;;;;13.35;8.52;;;3.10;61.70;;;;;;5074858;28;20020;-33
2022/03/03 06:33:35;;;;;;;14.52;8.45;;;3.10;61.70;;;;;;5092776;28;20039;-33
2022/03/03 06:36:00;;;;;;;13.43;8.65;;;3.10;61.70;;;;;;5074674;28;20119;-33
2022/03/03 06:38:26;;;;;;;13.90;8.32;;;3.10;61.70;;;;;;5092983;28;20103;-36
2022/03/03 06:40:54;;;;;;;15.98;9.13;;;3.10;61.70;;;;;;5093373;28;20012;-37
2022/03/03 06:43:20;;;;;;;15.13;9.48;;;3.20;61.80;;;;;;5092962;28;20151;-33
2022/03/03 06:45:46;;;;;;;14.45;8.95;;;3.20;61.80;;;;;;5092694;28;20095;-33
2022/03/03 06:48:13;;;;;;;13.13;8.57;;;3.20;61.70;;;;;;5092977;28;20047;-32
2022/03/03 06:50:40;;;;;;;13.57;8.75;;;3.20;61.70;;;;;;5092916;28;20036;-33
2022/03/03 06:53:09;;;;;;;17.38;9.07;;;3.20;61.70;;;;;;5092948;28;20074;-32
2022/03/03 06:55:36;;;;;;;15.27;9.68;;;3.20;61.70;;;;;;5092569;28;20051;-35
2022/03/03 06:58:02;;;;;;;17.40;9.70;;;3.30;61.70;;;;;;5092571;28;20080;-35
2022/03/03 07:00:33;;;;;;;16.30;9.00;;;3.30;61.70;;;;;;5092594;28;20028;-36
2022/03/03 07:03:01;;;;;;;15.25;8.93;;;3.40;61.70;;;;;;5092427;28;20108;-36
2022/03/03 07:05:29;;;;;;;13.90;8.40;;;3.40;61.70;;;;;;5074469;28;20466;-34
2022/03/03 07:07:55;;;;;;;12.65;8.15;;;3.40;61.60;;;;;;5092456;28;20477;-32
2022/03/03 07:10:25;;;;;;;13.32;8.60;;;3.50;61.60;;;;;;5092442;28;20042;-33
2022/03/03 07:12:57;;;;;;;13.65;8.30;;;3.50;61.50;;;;;;5092701;28;20026;-34
2022/03/03 07:15:24;;;;;;;15.20;8.15;;;3.50;61.40;;;;;;5092474;28;20027;-33
2022/03/03 07:17:53;;;;;;;14.07;8.73;;;3.60;61.30;;;;;;5092356;28;20074;-33
2022/03/03 07:20:59;;;;;;;13.23;7.85;;;3.60;61.30;;;;;;5095391;28;20065;-33
2022/03/03 07:23:36;;;;;;;11.25;7.00;;;3.70;61.20;;;;;;5085323;28;20557;-35
2022/03/03 07:26:03;;;;;;;12.88;7.53;;;3.80;61.20;;;;;;5096240;28;20012;-35
2022/03/03 07:28:30;;;;;;;12.90;7.22;;;3.80;61.10;;;;;;5096203;28;20392;-35
2022/03/03 07:30:59;;;;;;;11.38;6.90;;;3.80;61.00;;;;;;5096078;28;20817;-35
2022/03/03 07:33:40;;;;;;;9.85;6.70;;;3.90;61.10;;;;;;5096106;28;20032;-37
2022/03/03 07:36:11;;;;;;;9.57;6.57;;;4.00;61.00;;;;;;5096160;28;20020;-33
2022/03/03 07:38:38;;;;;;;8.77;6.10;;;4.10;61.10;;;;;;5077690;28;20111;-35
2022/03/03 07:41:04;;;;;;;9.00;6.05;;;4.10;61.10;;;;;;5095963;28;20019;-34
2022/03/03 07:43:31;;;;;;;10.07;6.25;;;4.20;61.00;;;;;;5096136;28;20476;-38
2022/03/03 07:45:57;;;;;;;11.77;6.28;;;4.30;61.10;;;;;;5077684;28;20024;-38
2022/03/03 07:48:24;;;;;;;10.13;6.55;;;4.30;60.80;;;;;;5096175;28;20039;-32
2022/03/03 07:50:50;;;;;;;9.57;6.82;;;4.40;60.90;;;;;;5096015;28;20028;-35
2022/03/03 07:53:16;;;;;;;10.43;6.45;;;4.50;61.10;;;;;;5095759;28;20047;-33
2022/03/03 07:55:44;;;;;;;12.15;6.82;;;4.60;61.20;;;;;;5095485;28;20044;-36
2022/03/03 07:58:20;;;;;;;10.95;6.80;;;4.60;60.90;;;;;;5095561;28;20024;-36
2022/03/03 08:00:50;;;;;;;10.43;6.70;;;4.70;60.60;;;;;;5095937;28;20020;-37
2022/03/03 08:03:19;;;;;;;11.10;7.05;;;4.70;60.40;;;;;;5095896;28;20016;-33
2022/03/03 08:05:47;;;;;;;12.90;7.10;;;4.80;60.30;;;;;;5095692;28;20020;-33
2022/03/03 08:08:15;;;;;;;10.82;7.30;;;4.80;60.20;;;;;;5095799;28;20472;-34
2022/03/03 08:10:42;;;;;;;11.30;6.82;;;4.90;60.10;;;;;;5095544;28;20028;-36
2022/03/03 08:13:14;;;;;;;12.30;7.05;;;5.00;59.90;;;;;;5095456;28;20100;-36
2022/03/03 08:15:41;;;;;;;10.38;7.18;;;5.00;59.60;;;;;;5095587;28;20023;-32
2022/03/03 08:18:08;;;;;;;11.57;7.32;;;5.10;59.60;;;;;;5095222;28;20104;-32
2022/03/03 08:20:34;;;;;;;10.27;6.38;;;5.10;59.60;;;;;;5095251;28;20012;-33
2022/03/03 08:23:00;;;;;;;9.90;6.68;;;5.20;59.40;;;;;;5095437;28;20465;-33
2022/03/03 08:25:27;;;;;;;10.32;6.45;;;5.30;59.40;;;;;;5077244;28;20091;-36
2022/03/03 08:27:54;;;;;;;11.15;6.88;;;5.30;60.00;;;;;;5095236;28;20101;-33
2022/03/03 08:30:20;;;;;;;10.45;7.45;;;5.40;59.90;;;;;;5094349;28;20030;-34
2022/03/03 08:33:11;;;;;;;10.50;7.28;;;5.40;59.50;;;;;;5094509;28;20028;-36
2022/03/03 08:35:41;;;;;;;11.00;6.90;;;5.50;59.60;;;;;;5095185;28;20476;-33
2022/03/03 08:38:14;;;;;;;9.82;6.55;;;5.60;59.60;;;;;;5094883;28;20085;-36
2022/03/03 08:40:41;;;;;;;9.63;6.70;;;5.70;59.40;;;;;;5094903;28;20045;-32
2022/03/03 08:43:07;;;;;;;9.85;6.50;;;5.70;59.60;;;;;;5094847;28;20016;-34
2022/03/03 08:45:35;;;;;;;10.55;7.07;;;5.80;59.60;;;;;;5095019;28;20027;-33
2022/03/03 08:48:07;;;;;;;10.82;6.93;;;5.90;59.40;;;;;;5094701;28;20016;-33
2022/03/03 08:50:35;;;;;;;8.73;6.22;;;5.90;59.20;;;;;;5094693;28;20024;-35
2022/03/03 08:53:03;;;;;;;11.13;6.57;;;5.90;60.10;;;;;;5094672;28;20020;-34
2022/03/03 08:55:29;;;;;;;11.07;6.90;;;6.00;60.20;;;;;;5094421;28;20561;-36
2022/03/03 08:57:55;;;;;;;10.85;7.53;;;6.00;60.20;;;;;;5094373;28;20099;-36
2022/03/03 09:00:21;;;;;;;9.65;6.07;;;6.00;60.00;;;;;;5094844;28;20127;-32
2022/03/03 09:02:48;;;;;;;10.40;7.38;;;6.10;59.90;;;;;;5094385;28;20597;-33
2022/03/03 09:05:14;;;;;;;10.55;7.05;;;6.10;59.60;;;;;;5076291;28;20054;-33
2022/03/03 09:07:40;;;;;;;10.60;6.72;;;6.20;59.60;;;;;;5094432;28;20490;-37
2022/03/03 09:10:07;;;;;;;11.63;7.43;;;6.20;59.70;;;;;;5076236;28;20085;-32
2022/03/03 09:12:33;;;;;;;11.27;7.43;;;6.30;59.50;;;;;;5076148;28;20028;-33
2022/03/03 09:14:59;;;;;;;12.27;7.35;;;6.30;59.30;;;;;;5094144;28;20028;-34
2022/03/03 09:17:25;;;;;;;11.73;7.78;;;6.30;58.90;;;;;;5094348;28;20031;-33
2022/03/03 09:19:51;;;;;;;9.52;6.28;;;6.40;58.80;;;;;;5094061;28;20520;-33
2022/03/03 09:22:16;;;;;;;11.05;7.30;;;6.40;58.50;;;;;;5094131;28;20099;-34
2022/03/03 09:24:42;;;;;;;10.43;6.35;;;6.50;58.40;;;;;;5093993;28;20028;-35
2022/03/03 09:27:08;;;;;;;10.73;7.03;;;6.60;58.30;;;;;;5094193;28;20027;-33
2022/03/03 09:29:34;;;;;;;9.30;6.97;;;6.60;58.20;;;;;;5094285;28;20144;-34
2022/03/03 09:32:01;;;;;;;10.45;6.78;;;6.70;58.10;;;;;;5076093;28;20524;-39
2022/03/03 09:34:28;;;;;;;11.57;7.18;;;6.80;58.20;;;;;;5093822;28;20060;-33
2022/03/03 09:36:54;;;;;;;10.32;6.57;;;6.90;58.00;;;;;;5094026;28;20035;-38
2022/03/03 09:39:20;;;;;;;10.35;7.03;;;6.90;58.10;;;;;;5075567;28;20024;-33
2022/03/03 09:41:46;;;;;;;10.20;7.22;;;7.00;58.50;;;;;;5093343;28;20024;-33
2022/03/03 09:44:13;;;;;;;10.85;7.45;;;7.10;58.30;;;;;;5093506;28;20055;-36
2022/03/03 09:46:39;;;;;;;11.82;7.18;;;7.10;58.10;;;;;;5093795;28;20495;-32
2022/03/03 09:49:05;;;;;;;11.57;7.43;;;7.20;57.90;;;;;;5093629;28;20035;-34
2022/03/03 09:51:30;;;;;;;11.27;6.93;;;7.30;58.70;;;;;;5093554;28;20019;-37
2022/03/03 09:53:56;;;;;;;11.63;6.22;;;7.30;58.90;;;;;;5093641;28;20128;-34
2022/03/03 09:56:22;;;;;;;10.05;6.40;;;7.40;58.50;;;;;;5093875;28;20368;-33
2022/03/03 09:58:48;;;;;;;9.68;6.97;;;7.50;58.50;;;;;;5093393;28;20032;-35
2022/03/03 10:01:14;;;;;;;10.45;6.50;;;7.50;58.90;;;;;;5075313;28;20028;-36
2022/03/03 10:03:41;;;;;;;11.95;7.47;;;7.60;59.80;;;;;;5093570;28;20034;-33
2022/03/03 10:06:10;;;;;;;10.23;6.95;;;7.70;59.50;;;;;;5093583;28;20448;-34
2022/03/03 10:08:36;;;;;;;12.15;8.07;;;7.70;59.20;;;;;;5093312;28;20103;-34
2022/03/03 10:11:03;;;;;;;11.05;7.43;;;7.80;59.60;;;;;;5093547;28;20443;-36
2022/03/03 10:13:49;;;;;;;10.93;7.03;;;7.80;60.30;;;;;;5093176;28;20077;-33
2022/03/03 10:16:29;;;;;;;12.07;8.00;;;7.80;59.70;;;;;;5093176;28;20034;-37
2022/03/03 10:18:59;;;;;;;11.02;7.22;;;7.90;59.50;;;;;;5092999;28;20383;-34
2022/03/03 10:21:30;;;;;;;10.23;6.72;;;8.00;60.00;;;;;;5093052;28;20028;-33
2022/03/03 10:23:57;;;;;;;9.13;6.50;;;8.10;61.40;;;;;;5093084;28;20087;-34
2022/03/03 10:26:38;;;;;;;9.23;6.10;;;8.20;61.50;;;;;;5093147;28;20024;-33
2022/03/03 10:29:15;;;;;;;8.07;5.70;;;8.30;61.50;;;;;;5093344;28;20023;-34
2022/03/03 10:31:59;;;;;;;9.55;6.53;;;8.40;63.50;;;;;;5092990;28;20028;-39
2022/03/03 10:34:33;;;;;;;9.18;6.65;;;8.50;62.80;;;;;;5093252;28;20030;-32
2022/03/03 10:36:58;;;;;;;;;;;8.60;62.60;;;;;;5093350;28;20118;-34
2022/03/03 10:39:24;;;;;;;7.45;5.47;;;8.70;62.10;;;;;;5092927;28;19912;-39
2022/03/03 10:41:55;;;;;;;10.85;6.70;;;8.70;64.00;;;;;;5092876;28;20024;-33
2022/03/03 10:44:22;;;;;;;8.55;5.95;;;8.80;63.20;;;;;;5092999;28;20017;-37
2022/03/03 10:47:08;;;;;;;9.23;6.45;;;8.80;63.60;;;;;;5092786;28;20028;-33
2022/03/03 10:49:40;;;;;;;10.13;6.68;;;8.90;63.00;;;;;;5092897;28;20036;-33
2022/03/03 10:52:15;;;;;;;9.82;6.57;;;8.90;63.20;;;;;;5093337;28;20411;-33
2022/03/03 10:55:08;;;;;;;9.23;6.85;;;9.10;63.80;;;;;;5094525;28;20527;-36
2022/03/03 10:57:51;;;;;;;8.15;6.03;;;9.10;62.40;;;;;;5096867;28;20028;-35
2022/03/03 11:00:25;;;;;;;9.77;6.40;;;9.20;63.80;;;;;;5096929;28;20524;-36
2022/03/03 11:02:53;;;;;;;10.35;5.82;;;9.20;64.20;;;;;;5096821;28;20626;-35
2022/03/03 11:05:21;;;;;;;10.70;6.80;;;9.30;65.10;;;;;;5097011;28;20016;-34
2022/03/03 11:07:49;;;;;;;10.00;6.65;;;9.40;65.60;;;;;;5096709;28;20017;-35
2022/03/03 11:10:25;;;;;;;10.00;6.57;;;9.40;64.00;;;;;;5096859;28;20046;-35
2022/03/03 11:12:51;;;;;;;10.90;6.85;;;9.50;63.20;;;;;;5096717;28;20040;-35
2022/03/03 11:15:19;;;;;;;10.02;6.20;;;9.50;62.70;;;;;;5096650;28;20156;-36
2022/03/03 11:17:45;;;;;;;8.95;6.25;;;9.60;63.00;;;;;;5096759;28;20008;-35
2022/03/03 11:20:14;;;;;;;9.80;6.72;;;9.60;63.80;;;;;;5096262;28;20032;-35
2022/03/03 11:22:41;;;;;;;11.93;6.68;;;9.60;61.80;;;;;;5096295;28;20100;-33
2022/03/03 11:25:11;;;;;;;8.20;6.30;;;9.60;62.10;;;;;;5078220;28;20012;-36
2022/03/03 11:27:39;;;;;;;8.30;6.05;;;9.70;62.60;;;;;;5078141;28;20020;-34
2022/03/03 11:30:14;;;;;;;6.82;4.60;;;9.70;63.00;;;;;;5096357;28;20415;-34
2022/03/03 11:32:40;;;;;;;9.88;5.53;;;9.70;64.10;;;;;;5096120;28;20024;-34
2022/03/03 11:35:08;;;;;;;7.40;5.20;;;9.80;64.10;;;;;;5096243;28;20034;-35
2022/03/03 11:37:39;;;;;;;7.45;5.43;;;9.90;63.40;;;;;;5095620;28;20047;-37
2022/03/03 11:40:05;;;;;;;7.20;5.50;;;10.00;64.50;;;;;;5096176;28;20020;-35
2022/03/03 11:42:31;;;;;;;10.32;5.80;;;10.10;64.20;;;;;;5077888;28;20038;-34
2022/03/03 11:45:07;;;;;;;9.18;5.82;;;10.20;62.60;;;;;;5096307;28;20673;-39
2022/03/03 11:47:35;;;;;;;5.68;3.65;;;10.20;62.50;;;;;;5096026;28;20027;-36
2022/03/03 11:50:04;;;;;;;7.30;5.10;;;10.20;64.70;;;;;;5095923;28;20024;-35
2022/03/03 11:52:30;;;;;;;7.30;5.07;;;10.30;65.40;;;;;;5096137;28;20168;-36
2022/03/03 11:54:57;;;;;;;8.57;5.85;;;10.40;65.60;;;;;;5095862;28;20580;-36
2022/03/03 11:57:27;;;;;;;8.82;5.80;;;10.50;64.10;;;;;;5096166;28;20099;-37
2022/03/03 11:59:54;;;;;;;5.25;3.90;;;10.60;62.80;;;;;;5095660;28;20022;-40
2022/03/03 12:02:30;;;;;;;7.13;5.43;;;10.70;63.90;;;;;;5095740;28;20022;-34
2022/03/03 12:05:27;;;;;;;8.13;5.88;;;10.80;63.30;;;;;;5095535;28;20525;-36
2022/03/03 12:07:58;;;;;;;9.63;6.88;;;10.80;61.60;;;;;;5095629;28;20020;-34
2022/03/03 12:10:24;;;;;;;8.65;6.18;;;10.90;61.30;;;;;;5095582;28;20016;-34
2022/03/03 12:12:49;;;;;;;7.97;6.65;;;10.90;60.60;;;;;;5095536;28;20027;-36
2022/03/03 12:15:15;;;;;;;8.32;6.07;;;11.00;60.10;;;;;;5095514;28;20028;-33
2022/03/03 12:17:55;;;;;;;8.02;5.80;;;11.00;60.60;;;;;;5095393;28;20028;-35
2022/03/03 12:20:40;;;;;;;7.68;5.28;;;11.00;60.50;;;;;;5095390;28;20032;-34
2022/03/03 12:23:10;;;;;;;8.15;5.70;;;11.00;61.80;;;;;;5095593;28;20480;-39
2022/03/03 12:25:51;;;;;;;7.40;4.90;;;11.10;60.80;;;;;;5095301;28;20016;-35
2022/03/03 12:28:23;;;;;;;7.03;5.45;;;11.20;61.70;;;;;;5095312;28;20080;-36
2022/03/03 12:30:50;;;;;;;7.32;5.55;;;11.20;61.20;;;;;;5095139;28;20480;-37
2022/03/03 12:33:53;;;;;;;8.70;5.57;;;11.30;61.10;;;;;;5077302;28;20020;-35
2022/03/03 12:36:19;;;;;;;8.10;4.93;;;11.30;60.40;;;;;;5095063;28;20484;-37
2022/03/03 12:38:45;;;;;;;7.70;5.38;;;11.40;61.40;;;;;;5095166;28;20031;-35
2022/03/03 12:41:10;;;;;;;7.38;4.57;;;11.40;61.50;;;;;;5094854;28;20016;-34
2022/03/03 12:43:41;;;;;;;6.30;4.18;;;11.50;61.80;;;;;;5094954;28;20020;-35
2022/03/03 12:46:07;;;;;;;6.40;4.53;;;11.60;61.10;;;;;;5094870;28;20020;-41
2022/03/03 12:48:34;;;;;;;5.22;4.28;;;11.60;61.40;;;;;;5094803;28;20016;-36
2022/03/03 12:51:03;;;;;;;8.13;4.88;;;11.70;61.40;;;;;;5094594;28;20024;-34